Time;durP1;ratioP1;P1;durP2;ratioP2;P2;SDS_P1;SDS_P2;PMS_P1;PMS_P2;Temp;Humidity;BMP_temperature;BMP_pressure;BME280_temperature;BME280_humidity;BME280_pressure;Samples;Min_cycle;Max_cycle;Signal;HPM_P1;HPM_P2
2021/01/08 10:09:48;;;;;;;52.65;15.60;;;3.80;99.90;;;;;;5103515;27;20335;-72
2021/01/08 10:12:18;;;;;;;43.03;16.38;;;4.00;99.90;;;;;;5096042;28;20031;-70
2021/01/08 10:14:44;;;;;;;43.30;17.38;;;4.40;99.90;;;;;;5093334;28;20021;-71
2021/01/08 10:17:15;;;;;;;33.58;16.55;;;4.90;99.90;;;;;;5062158;27;20040;-70
2021/01/08 10:19:46;;;;;;;35.78;16.48;;;5.40;99.90;;;;;;5068316;28;20021;-70
2021/01/08 10:22:17;;;;;;;43.83;18.77;;;5.70;99.90;;;;;;5059397;28;20060;-71
2021/01/08 10:24:43;;;;;;;46.50;19.90;;;6.00;99.90;;;;;;5060455;28;20048;-70
2021/01/08 10:27:09;;;;;;;36.78;16.98;;;6.20;99.90;;;;;;5052048;28;20583;-70
2021/01/08 10:29:39;;;;;;;34.55;15.13;;;6.40;99.90;;;;;;5054616;28;20399;-70
2021/01/08 10:32:12;;;;;;;30.02;13.05;;;6.40;99.90;;;;;;5060110;28;20057;-70
2021/01/08 10:34:43;;;;;;;28.77;12.23;;;6.60;99.90;;;;;;5058673;28;20047;-70
2021/01/08 10:37:18;;;;;;;18.30;9.53;;;6.60;99.90;;;;;;5062908;28;20067;-70
2021/01/08 10:39:44;;;;;;;27.73;13.15;;;6.60;99.90;;;;;;5060105;28;20467;-70
2021/01/08 10:42:10;;;;;;;28.23;12.88;;;6.70;99.90;;;;;;5063957;28;20039;-69
2021/01/08 10:44:37;;;;;;;27.70;12.60;;;6.80;99.90;;;;;;5057429;28;20112;-70
2021/01/08 10:47:06;;;;;;;24.50;12.82;;;6.80;99.90;;;;;;5057293;28;20107;-71
2021/01/08 10:49:32;;;;;;;29.00;13.15;;;6.80;99.90;;;;;;5042938;28;20112;-70
2021/01/08 10:51:58;;;;;;;24.85;12.73;;;6.90;99.90;;;;;;5037147;28;20421;-71
2021/01/08 10:54:23;;;;;;;24.75;12.88;;;6.90;99.90;;;;;;5036026;28;20022;-72
2021/01/08 10:56:49;;;;;;;32.13;13.10;;;7.00;99.90;;;;;;5042126;28;20033;-70
2021/01/08 10:59:16;;;;;;;26.63;13.52;;;7.00;99.90;;;;;;5058729;28;20033;-71
2021/01/08 11:01:45;;;;;;;37.25;16.92;;;7.10;99.90;;;;;;5041445;28;20034;-71
2021/01/08 11:04:11;;;;;;;39.13;15.57;;;7.10;99.90;;;;;;5043003;28;20036;-71
2021/01/08 11:06:40;;;;;;;30.40;13.93;;;7.20;99.90;;;;;;5057566;28;20037;-71
2021/01/08 11:09:07;;;;;;;29.80;13.57;;;7.10;99.90;;;;;;5042784;28;20560;-72
2021/01/08 11:14:16;;;;;;;22.75;11.80;;;7.00;99.90;;;;;;4962449;27;20366;-71
2021/01/08 11:16:41;;;;;;;22.30;11.23;;;6.90;99.90;;;;;;4931452;28;20127;-75
2021/01/08 11:19:07;;;;;;;20.33;9.32;;;6.80;99.90;;;;;;4927383;29;20127;-74
2021/01/08 11:21:33;;;;;;;22.70;10.25;;;6.80;99.90;;;;;;4924999;29;20086;-74
2021/01/08 11:23:58;;;;;;;22.00;10.10;;;6.80;99.90;;;;;;4929463;29;20035;-74
2021/01/08 11:26:29;;;;;;;18.02;10.02;;;6.70;99.90;;;;;;4922076;29;20032;-73
2021/01/08 11:29:00;;;;;;;25.75;11.60;;;6.70;99.90;;;;;;4924854;28;20024;-75
2021/01/08 11:31:36;;;;;;;25.48;10.65;;;6.80;99.90;;;;;;4922107;28;20048;-74
2021/01/08 11:34:09;;;;;;;22.25;10.68;;;6.80;99.90;;;;;;4922890;28;20038;-74
2021/01/08 11:36:36;;;;;;;20.15;8.95;;;6.80;99.90;;;;;;4925013;28;20078;-75
2021/01/08 11:39:02;;;;;;;29.00;11.10;;;6.80;99.90;;;;;;4920384;29;20028;-73
2021/01/08 11:41:28;;;;;;;21.92;10.52;;;6.80;99.90;;;;;;4922919;29;20040;-74
2021/01/08 11:43:54;;;;;;;30.13;12.60;;;6.80;99.90;;;;;;4923646;29;20042;-74
2021/01/08 11:46:20;;;;;;;35.38;14.50;;;6.80;99.90;;;;;;4924653;28;20054;-74
2021/01/08 11:48:50;;;;;;;30.98;13.90;;;6.90;99.90;;;;;;4925784;28;20110;-74
2021/01/08 11:51:16;;;;;;;26.20;10.32;;;6.90;99.90;;;;;;4918728;29;20035;-75
2021/01/08 11:53:43;;;;;;;20.90;10.60;;;7.00;99.90;;;;;;4920167;29;20086;-74
2021/01/08 11:56:10;;;;;;;27.08;10.50;;;6.80;99.90;;;;;;4919846;29;20500;-74
2021/01/08 11:58:39;;;;;;;19.55;10.15;;;6.80;99.90;;;;;;4926928;28;20028;-74
2021/01/08 12:01:06;;;;;;;20.83;11.32;;;6.70;99.90;;;;;;4936085;28;20419;-74
2021/01/08 12:03:32;;;;;;;22.85;10.75;;;6.60;99.90;;;;;;4927885;28;20027;-73
2021/01/08 12:05:58;;;;;;;30.15;11.23;;;6.70;99.90;;;;;;4923168;28;20031;-74
2021/01/08 12:08:24;;;;;;;24.67;10.98;;;6.70;99.90;;;;;;4924632;29;20028;-73
2021/01/08 12:10:52;;;;;;;23.23;10.45;;;6.80;99.90;;;;;;4920209;29;20041;-75
2021/01/08 12:13:19;;;;;;;23.40;10.50;;;6.80;99.90;;;;;;4920881;28;20051;-75
2021/01/08 12:15:45;;;;;;;24.55;12.07;;;6.80;99.90;;;;;;4921046;29;20043;-73
2021/01/08 12:18:11;;;;;;;24.08;10.68;;;6.80;99.90;;;;;;4927718;28;20135;-74
2021/01/08 12:20:37;;;;;;;21.35;11.00;;;6.90;99.90;;;;;;4920409;29;20532;-74
2021/01/08 12:23:06;;;;;;;23.88;11.25;;;6.90;99.90;;;;;;4917552;29;20067;-73
2021/01/08 12:25:39;;;;;;;25.60;10.30;;;7.00;99.90;;;;;;4907101;29;20079;-72
2021/01/08 12:28:08;;;;;;;20.27;9.95;;;7.00;99.90;;;;;;4921943;29;20036;-73
2021/01/08 12:30:34;;;;;;;23.98;10.65;;;7.10;99.90;;;;;;4913859;28;20542;-73
2021/01/08 12:33:00;;;;;;;20.38;10.25;;;7.10;99.90;;;;;;4907047;29;20071;-74
2021/01/08 12:35:27;;;;;;;24.08;10.95;;;7.20;99.90;;;;;;4910233;28;20702;-75
2021/01/08 12:37:58;;;;;;;28.05;11.77;;;7.20;99.90;;;;;;4908397;29;20029;-74
2021/01/08 12:40:24;;;;;;;24.02;11.35;;;7.30;99.90;;;;;;4906932;29;20062;-75
2021/01/08 12:42:52;;;;;;;24.30;10.40;;;7.40;99.90;;;;;;4906465;29;20529;-75
2021/01/08 12:45:18;;;;;;;17.13;8.88;;;7.40;99.90;;;;;;4907246;29;20507;-74
2021/01/08 12:47:45;;;;;;;18.52;9.55;;;7.40;99.90;;;;;;4908075;29;20035;-74
2021/01/08 12:50:12;;;;;;;23.98;9.85;;;7.50;99.90;;;;;;4908704;28;20044;-74
2021/01/08 12:52:37;;;;;;;22.92;9.40;;;7.50;99.90;;;;;;4912746;29;20043;-75
2021/01/08 12:55:04;;;;;;;24.63;9.77;;;7.50;99.90;;;;;;4910574;29;20032;-76
2021/01/08 12:57:30;;;;;;;18.50;9.90;;;7.50;99.90;;;;;;4907322;28;20028;-72
2021/01/08 12:59:57;;;;;;;14.60;8.93;;;7.50;99.90;;;;;;4908281;29;20028;-71
2021/01/08 13:02:23;;;;;;;18.95;8.85;;;7.60;99.90;;;;;;4904897;29;20043;-71
2021/01/08 13:04:49;;;;;;;20.45;9.55;;;7.60;99.90;;;;;;4910025;28;20039;-72
2021/01/08 13:07:14;;;;;;;17.02;9.75;;;7.60;99.90;;;;;;4904677;29;20028;-70
2021/01/08 13:09:40;;;;;;;28.70;9.88;;;7.60;99.90;;;;;;4906009;29;20040;-72
2021/01/08 13:12:06;;;;;;;22.70;9.20;;;7.70;99.90;;;;;;4904880;28;20028;-72
2021/01/08 13:14:33;;;;;;;17.70;9.50;;;7.70;99.90;;;;;;4908368;29;20494;-72
2021/01/08 13:16:59;;;;;;;19.23;10.18;;;7.80;99.90;;;;;;4906412;29;20039;-72
2021/01/08 13:19:25;;;;;;;23.88;9.70;;;7.80;99.90;;;;;;4907767;29;20031;-71
2021/01/08 13:21:52;;;;;;;19.15;9.23;;;7.80;99.90;;;;;;4910557;29;20508;-72
2021/01/08 13:24:20;;;;;;;22.70;9.82;;;7.90;99.90;;;;;;4904770;29;20040;-71
2021/01/08 13:26:47;;;;;;;18.88;9.40;;;7.90;99.90;;;;;;4910879;29;20151;-72
2021/01/08 13:29:12;;;;;;;19.55;9.80;;;7.90;99.90;;;;;;4908986;29;20036;-70
2021/01/08 13:31:38;;;;;;;19.85;9.27;;;7.90;99.90;;;;;;4903914;29;20048;-71
2021/01/08 13:34:04;;;;;;;19.33;9.68;;;7.90;99.90;;;;;;4906794;29;20517;-72
2021/01/08 13:36:32;;;;;;;19.17;9.88;;;7.90;99.90;;;;;;4900430;29;20024;-71
2021/01/08 13:38:58;;;;;;;18.98;8.95;;;7.90;99.90;;;;;;4907735;29;20146;-71
2021/01/08 13:41:24;;;;;;;16.52;8.60;;;7.90;99.90;;;;;;4903699;29;20139;-71
2021/01/08 13:43:50;;;;;;;18.92;8.10;;;7.90;99.90;;;;;;4910619;29;20041;-71
2021/01/08 13:46:16;;;;;;;18.23;8.93;;;7.90;99.90;;;;;;4911177;28;20040;-71
2021/01/08 13:48:44;;;;;;;17.52;8.57;;;7.90;99.90;;;;;;4906581;29;20040;-71
2021/01/08 13:51:24;;;;;;;17.33;9.27;;;7.80;99.90;;;;;;4902500;29;20118;-71
2021/01/08 13:53:51;;;;;;;22.90;8.57;;;7.80;99.90;;;;;;4906923;28;20033;-71
2021/01/08 13:56:25;;;;;;;21.67;8.45;;;7.80;99.90;;;;;;4921509;28;20067;-71
2021/01/08 13:58:55;;;;;;;14.38;7.60;;;7.70;99.90;;;;;;4903935;28;20029;-71
2021/01/08 14:01:21;;;;;;;19.80;8.55;;;7.70;99.90;;;;;;4907266;29;20047;-71
2021/01/08 14:03:47;;;;;;;20.92;7.75;;;7.60;99.90;;;;;;4906838;29;20231;-71
2021/01/08 14:06:28;;;;;;;20.55;8.65;;;7.60;99.90;;;;;;4905253;29;20504;-70
2021/01/08 14:08:55;;;;;;;15.57;8.38;;;7.60;99.90;;;;;;4908384;29;20031;-70
2021/01/08 14:11:34;;;;;;;19.75;8.57;;;7.60;99.90;;;;;;4901101;29;20507;-71
2021/01/08 14:14:02;;;;;;;18.58;8.60;;;7.70;99.90;;;;;;4917877;28;20048;-71
2021/01/08 14:16:28;;;;;;;16.65;7.47;;;7.70;99.90;;;;;;4910839;29;20534;-71
2021/01/08 14:18:54;;;;;;;17.27;7.82;;;7.80;99.90;;;;;;4908556;29;20052;-71
2021/01/08 14:21:31;;;;;;;16.70;7.32;;;7.80;99.90;;;;;;4907083;29;20491;-71
2021/01/08 14:23:59;;;;;;;16.33;7.20;;;7.80;99.90;;;;;;4908225;29;20425;-72
2021/01/08 14:26:26;;;;;;;12.30;7.07;;;7.90;99.90;;;;;;4902472;29;20111;-72
2021/01/08 14:28:53;;;;;;;15.20;7.22;;;7.90;99.90;;;;;;4909021;28;20032;-73
2021/01/08 14:31:49;;;;;;;12.75;6.07;;;7.90;99.90;;;;;;4953169;28;20041;-71
2021/01/08 14:34:19;;;;;;;10.20;5.57;;;7.90;99.90;;;;;;4994121;28;20057;-72
2021/01/08 14:36:46;;;;;;;15.27;5.80;;;7.90;99.90;;;;;;5003848;28;20077;-72
2021/01/08 14:39:13;;;;;;;11.38;5.97;;;7.90;99.90;;;;;;5002556;28;20080;-71
2021/01/08 14:41:41;;;;;;;14.77;7.90;;;7.90;99.90;;;;;;5003424;28;20456;-71
2021/01/08 14:44:08;;;;;;;12.07;6.53;;;7.90;99.90;;;;;;5001183;28;20036;-71
2021/01/08 14:46:36;;;;;;;21.35;10.93;;;7.90;99.90;;;;;;5006385;28;20084;-71
2021/01/08 14:49:02;;;;;;;14.80;8.02;;;8.00;99.90;;;;;;5000233;28;20029;-72
2021/01/08 14:51:31;;;;;;;15.55;6.93;;;8.00;99.90;;;;;;5006115;28;20025;-72
2021/01/08 14:53:57;;;;;;;21.55;9.63;;;8.00;97.70;;;;;;5005347;28;20047;-73
2021/01/08 14:56:28;;;;;;;12.23;7.10;;;7.90;97.00;;;;;;5000057;28;20026;-71
2021/01/08 14:58:54;;;;;;;;;;;7.90;97.00;;;;;;5003568;28;20026;-71
2021/01/08 15:01:21;;;;;;;12.80;6.72;;;7.80;96.70;;;;;;5000236;28;20370;-72
2021/01/08 15:03:48;;;;;;;12.52;5.82;;;7.80;96.70;;;;;;5002566;28;20046;-71
2021/01/08 15:06:15;;;;;;;13.45;7.03;;;7.80;97.60;;;;;;5000652;28;20038;-72
2021/01/08 15:08:41;;;;;;;12.63;6.20;;;7.80;98.00;;;;;;5007233;28;20030;-72
2021/01/08 15:11:07;;;;;;;14.30;5.20;;;7.80;98.00;;;;;;4999420;28;20061;-71
2021/01/08 15:13:33;;;;;;;8.07;4.38;;;7.80;95.40;;;;;;4998674;28;20105;-71
2021/01/08 15:16:01;;;;;;;8.73;4.43;;;7.70;95.10;;;;;;5001385;28;20497;-71
